DRRN/NIM METAR and TAF weather

Enter ICAO airport designator
Station Type Date Time Source
DRRN METAR 2019/10/20 18:00 UTC NOAA

DRRN 201800Z 05009KT 020V080 8000 TS SCT015 FEW020CB 29/21 Q1011 NOSIG


Station Type Date Time Source
DRRN Decoded METAR 2019/10/20 18:00 UTC NOAA

Niamey-Aero, Niger (DRRN) 13-29N 002-10E 227M
Oct 20, 2019 - 02:00 PM EDT / 2019.10.20 1800 UTC
Wind: from the NE (050 degrees) at 10 MPH (9 KT) (direction variable):0
Visibility: 4 mile(s):0
Sky conditions: partly cloudy
Weather: thunder; Cumulonimbus clouds observed
Temperature: 84 F (29 C)
Dew Point: 69 F (21 C)
Relative Humidity: 62%
Pressure (altimeter): 29.85 in. Hg (1011 hPa)
ob: DRRN 201800Z 05009KT 020V080 8000 TS SCT015 FEW020CB 29/21 Q1011 NOSIG
cycle: 18

Station Type Date Time Source
DRRN TAF 2019/10/20 18:21 UTC NOAA

TAF DRRN 201700Z 2018/2124 14010KT 6000 TS BKN014 FEW020CB
TEMPO 2018/2022 06025G40KT 1000 BLDU TSRA
BECMG 2022/2024 NSW FEW020

Example: see airport list